createdAt,value
2023-05-03T00:00:01.927Z,99487.13
2023-05-03T00:02:40.437Z,99482.38
2023-05-03T00:05:13.607Z,99480.28
2023-05-03T00:07:45.091Z,99472.84
2023-05-03T00:10:19.564Z,99479.44
2023-05-03T00:12:49.750Z,99488.91
2023-05-03T00:15:17.116Z,99474.53
2023-05-03T00:17:44.258Z,99469.97
2023-05-03T00:20:12.220Z,99468.53
2023-05-03T00:22:39.197Z,99470.41
2023-05-03T00:25:07.748Z,99463.22
2023-05-03T00:27:34.742Z,99458.88
2023-05-03T00:30:03.315Z,99463.22
2023-05-03T00:32:32.504Z,99458.44
2023-05-03T00:34:59.718Z,99447.56
2023-05-03T00:37:27.485Z,99451.28
2023-05-03T00:39:55.259Z,99450.84
2023-05-03T00:42:24.081Z,99452.72
2023-05-03T00:44:51.702Z,99430.84
2023-05-03T00:47:20.006Z,99442.19
2023-05-03T00:49:47.076Z,99447.56
2023-05-03T00:52:14.420Z,99441.56
2023-05-03T00:54:44.483Z,99434.78
2023-05-03T00:57:30.851Z,99433.97
2023-05-03T00:59:59.265Z,99427.16
2023-05-03T01:02:28.334Z,99420.97
2023-05-03T01:04:55.926Z,99430.84
2023-05-03T01:07:40.889Z,99419.53
2023-05-03T01:10:34.558Z,99417.28
2023-05-03T01:13:11.178Z,99411.09
2023-05-03T01:16:00.852Z,99409.66
2023-05-03T01:18:34.286Z,99421.78
2023-05-03T01:21:05.988Z,99419.09
2023-05-03T01:24:08.593Z,99409.81
2023-05-03T01:26:35.610Z,99409.19
2023-05-03T01:29:02.759Z,99401.59
2023-05-03T01:31:49.124Z,99409.41
2023-05-03T01:34:42.184Z,99393.56
2023-05-03T01:37:10.630Z,99384.06
2023-05-03T01:40:10.040Z,99394.78
2023-05-03T01:42:37.926Z,99401.19
2023-05-03T01:45:05.575Z,99386.75
2023-05-03T01:47:33.075Z,99381.41
2023-05-03T01:50:00.549Z,99382.66
2023-05-03T01:52:27.976Z,99382.88
2023-05-03T01:54:55.060Z,99389.69
2023-05-03T01:57:22.934Z,99388.88
2023-05-03T01:59:49.983Z,99390.91
2023-05-03T02:02:17.264Z,99381.84
2023-05-03T02:04:47.591Z,99382.69
2023-05-03T02:07:14.646Z,99380.03
2023-05-03T02:09:41.828Z,99386.81
2023-05-03T02:12:12.879Z,99384.16
2023-05-03T02:14:39.826Z,99384.78
2023-05-03T02:17:08.679Z,99392.59
2023-05-03T02:19:35.916Z,99383.72
2023-05-03T02:22:07.017Z,99378.59
2023-05-03T02:24:36.406Z,99382.31
2023-05-03T02:27:07.049Z,99382.50
2023-05-03T02:29:35.109Z,99369.94
2023-05-03T02:32:10.352Z,99369.72
2023-05-03T02:34:39.396Z,99372.19
2023-05-03T02:37:10.934Z,99374.25
2023-05-03T02:39:41.312Z,99372.81
2023-05-03T02:42:09.580Z,99360.25
2023-05-03T02:44:39.734Z,99372.41
2023-05-03T02:47:09.683Z,99359.81
2023-05-03T02:49:47.284Z,99354.69
2023-05-03T02:52:14.624Z,99368.09
2023-05-03T02:54:43.822Z,99374.03
2023-05-03T02:57:14.312Z,99369.72
2023-05-03T02:59:43.846Z,99372.59
2023-05-03T03:02:10.964Z,99369.28
2023-05-03T03:04:38.294Z,99368.03
2023-05-03T03:07:06.219Z,99372.16
2023-05-03T03:09:33.840Z,99370.69
2023-05-03T03:12:03.626Z,99374.38
2023-05-03T03:14:33.647Z,99372.09
2023-05-03T03:17:03.481Z,99369.81
2023-05-03T03:19:31.952Z,99363.41
2023-05-03T03:22:01.878Z,99379.28
2023-05-03T03:24:30.367Z,99371.44
2023-05-03T03:26:58.222Z,99379.63
2023-05-03T03:29:29.162Z,99379.59
2023-05-03T03:31:56.549Z,99358.94
2023-05-03T03:34:23.910Z,99377.09
2023-05-03T03:36:51.038Z,99367.19
2023-05-03T03:39:18.637Z,99374.59
2023-05-03T03:41:47.315Z,99378.66
2023-05-03T03:44:14.404Z,99379.47
2023-05-03T03:46:41.514Z,99391.88
2023-05-03T03:49:08.874Z,99379.53
2023-05-03T03:51:36.788Z,99388.38
2023-05-03T03:54:04.900Z,99379.72
2023-05-03T03:56:38.255Z,99383.81
2023-05-03T03:59:08.754Z,99383.19
2023-05-03T04:01:35.895Z,99394.91
2023-05-03T04:04:04.912Z,99388.13
2023-05-03T04:06:33.261Z,99395.56
2023-05-03T04:09:04.810Z,99390.63
2023-05-03T04:11:35.142Z,99390.81
2023-05-03T04:14:10.991Z,99389.75
2023-05-03T04:16:38.132Z,99383.91
2023-05-03T04:19:06.952Z,99384.69
2023-05-03T04:21:40.407Z,99383.25
2023-05-03T04:24:08.098Z,99387.38
2023-05-03T04:26:35.407Z,99390.06
2023-05-03T04:29:20.158Z,99387.22
2023-05-03T04:31:47.712Z,99403.94
2023-05-03T04:34:19.148Z,99411.66
2023-05-03T04:36:49.263Z,99420.09
2023-05-03T04:39:17.078Z,99419.94
2023-05-03T04:41:46.932Z,99419.97
2023-05-03T04:44:14.495Z,99424.16
2023-05-03T04:46:50.256Z,99425.00
2023-05-03T04:49:18.237Z,99411.63
2023-05-03T04:51:45.281Z,99417.63
2023-05-03T04:54:13.015Z,99424.66
2023-05-03T04:56:43.685Z,99436.88
2023-05-03T04:59:16.120Z,99428.41
2023-05-03T05:01:43.533Z,99434.59
2023-05-03T05:04:11.340Z,99432.06
2023-05-03T05:06:43.602Z,99436.97
2023-05-03T05:09:23.446Z,99441.66
2023-05-03T05:12:02.439Z,99426.53
2023-05-03T05:14:35.217Z,99427.25
2023-05-03T05:17:04.804Z,99440.25
2023-05-03T05:19:31.982Z,99427.66
2023-05-03T05:21:58.938Z,99419.78
2023-05-03T05:24:38.369Z,99425.88
2023-05-03T05:27:07.110Z,99422.91
2023-05-03T05:29:35.123Z,99436.03
2023-05-03T05:32:04.334Z,99429.47
2023-05-03T05:34:42.177Z,99434.47
2023-05-03T05:37:11.677Z,99424.59
2023-05-03T05:39:41.708Z,99424.41
2023-05-03T05:42:08.906Z,99414.34
2023-05-03T05:44:35.957Z,99418.09
2023-05-03T05:47:09.852Z,99427.22
2023-05-03T05:49:37.229Z,99424.53
2023-05-03T05:52:05.691Z,99440.66
2023-05-03T05:54:32.796Z,99434.91
2023-05-03T05:57:24.446Z,99434.06
2023-05-03T05:59:54.207Z,99431.47
2023-05-03T06:02:24.951Z,99425.41
2023-05-03T06:04:52.933Z,99425.63
2023-05-03T06:07:19.912Z,99421.56
2023-05-03T06:09:46.859Z,99428.97
2023-05-03T06:12:14.228Z,99426.66
2023-05-03T06:14:59.076Z,99433.41
2023-05-03T06:17:32.253Z,99432.19
2023-05-03T06:20:06.582Z,99433.06
2023-05-03T06:22:33.844Z,99430.56
2023-05-03T06:25:01.404Z,99438.56
2023-05-03T06:27:31.338Z,99423.44
2023-05-03T06:29:58.496Z,99426.59
2023-05-03T06:32:36.504Z,99441.50
2023-05-03T06:35:04.216Z,99432.00
2023-05-03T06:37:50.808Z,99434.94
2023-05-03T06:40:18.214Z,99435.41
2023-05-03T06:42:45.191Z,99440.34
2023-05-03T06:45:33.585Z,99439.47
2023-05-03T06:48:00.699Z,99448.47
2023-05-03T06:50:27.870Z,99447.25
2023-05-03T06:52:55.226Z,99437.75
2023-05-03T06:55:22.302Z,99441.00
2023-05-03T06:57:49.552Z,99444.91
2023-05-03T07:00:19.677Z,99447.53
2023-05-03T07:02:46.827Z,99466.59
2023-05-03T07:05:13.870Z,99457.75
2023-05-03T07:07:53.201Z,99455.00
2023-05-03T07:10:20.349Z,99457.41
2023-05-03T07:12:48.347Z,99454.22
2023-05-03T07:15:16.577Z,99451.88
2023-05-03T07:17:43.966Z,99457.47
2023-05-03T07:20:11.772Z,99461.72
2023-05-03T07:22:38.815Z,99454.25
2023-05-03T07:25:09.254Z,99458.94
2023-05-03T07:27:36.514Z,99454.25
2023-05-03T07:30:05.119Z,99459.88
2023-05-03T07:32:33.102Z,99461.28
2023-05-03T07:35:01.354Z,99466.47
2023-05-03T07:37:31.675Z,99480.72
2023-05-03T07:39:58.949Z,99468.59
2023-05-03T07:42:35.109Z,99478.91
2023-05-03T07:45:02.971Z,99468.34
2023-05-03T07:47:33.288Z,99492.31
2023-05-03T07:50:02.018Z,99496.19
2023-05-03T07:52:31.165Z,99503.16
2023-05-03T07:54:58.346Z,99507.59
2023-05-03T07:57:25.450Z,99503.97
2023-05-03T07:59:52.636Z,99508.00
2023-05-03T08:02:20.095Z,99506.53
2023-05-03T08:04:47.899Z,99507.25
2023-05-03T08:07:15.026Z,99504.91
2023-05-03T08:09:42.512Z,99513.66
2023-05-03T08:12:10.767Z,99518.63
2023-05-03T08:14:37.801Z,99526.56
2023-05-03T08:17:07.054Z,99529.94
2023-05-03T08:19:42.996Z,99522.56
2023-05-03T08:22:12.602Z,99543.81
2023-05-03T08:24:39.838Z,99533.72
2023-05-03T08:27:06.945Z,99547.69
2023-05-03T08:29:37.259Z,99550.75
2023-05-03T08:32:04.977Z,99556.44
2023-05-03T08:34:32.919Z,99546.59
2023-05-03T08:37:19.094Z,99545.03
2023-05-03T08:39:47.653Z,99540.84
2023-05-03T08:42:34.970Z,99528.75
2023-05-03T08:45:03.873Z,99545.78
2023-05-03T08:47:36.208Z,99531.06
2023-05-03T08:50:05.111Z,99535.19
2023-05-03T08:52:34.620Z,99525.66
2023-05-03T08:55:01.709Z,99540.59
2023-05-03T08:57:49.813Z,99544.84
2023-05-03T09:00:19.823Z,99552.84
2023-05-03T09:02:47.351Z,99560.81
2023-05-03T09:05:14.354Z,99560.31
2023-05-03T09:08:02.906Z,99552.47
2023-05-03T09:10:33.359Z,99568.41
2023-05-03T09:13:01.967Z,99562.63
2023-05-03T09:15:30.659Z,99564.31
2023-05-03T09:18:16.698Z,99566.88
2023-05-03T09:20:53.024Z,99566.81
2023-05-03T09:23:27.025Z,99558.00
2023-05-03T09:25:55.079Z,99546.09
2023-05-03T09:28:24.034Z,99552.97
2023-05-03T09:31:04.467Z,99558.06
2023-05-03T09:33:31.586Z,99548.97
2023-05-03T09:36:00.948Z,99564.00
2023-05-03T09:38:30.628Z,99568.13
2023-05-03T09:40:58.064Z,99572.63
2023-05-03T09:43:26.151Z,99578.06
2023-05-03T09:45:55.167Z,99582.41
2023-05-03T09:48:26.350Z,99581.59
2023-05-03T09:50:55.192Z,99585.06
2023-05-03T09:53:22.946Z,99584.88
2023-05-03T09:55:51.125Z,99581.09
2023-05-03T09:58:21.951Z,99576.09
2023-05-03T10:00:52.256Z,99576.75
2023-05-03T10:03:50.639Z,99581.00
2023-05-03T10:06:37.988Z,99582.00
2023-05-03T10:09:06.219Z,99585.69
2023-05-03T10:11:36.434Z,99578.38
2023-05-03T10:14:05.329Z,99587.44
2023-05-03T10:16:39.495Z,99586.03
2023-05-03T10:19:14.975Z,99577.91
2023-05-03T10:21:51.919Z,99586.84
2023-05-03T10:24:19.303Z,99581.00
2023-05-03T10:26:47.756Z,99572.63
2023-05-03T10:29:34.594Z,99574.44
2023-05-03T10:32:33.216Z,99571.09
2023-05-03T10:35:04.246Z,99565.75
2023-05-03T10:37:35.311Z,99576.72
2023-05-03T10:40:10.285Z,99575.81
2023-05-03T10:42:45.237Z,99578.69
2023-05-03T10:45:26.845Z,99581.41
2023-05-03T10:48:13.168Z,99581.03
2023-05-03T10:50:40.635Z,99581.25
2023-05-03T10:53:08.274Z,99574.53
2023-05-03T10:55:36.001Z,99581.63
2023-05-03T10:58:04.064Z,99580.75
2023-05-03T11:00:33.832Z,99582.72
2023-05-03T11:03:19.033Z,99587.28
2023-05-03T11:05:48.197Z,99563.00
2023-05-03T11:08:19.090Z,99573.25
2023-05-03T11:10:51.116Z,99568.53
2023-05-03T11:13:18.364Z,99559.38
2023-05-03T11:15:47.635Z,99572.56
2023-05-03T11:18:16.550Z,99564.28
2023-05-03T11:20:43.538Z,99563.69
2023-05-03T11:23:12.505Z,99590.81
2023-05-03T11:25:48.433Z,99563.97
2023-05-03T11:28:16.420Z,99563.09
2023-05-03T11:30:43.378Z,99552.81
2023-05-03T11:33:11.026Z,99551.47
2023-05-03T11:35:38.425Z,99555.22
2023-05-03T11:38:05.931Z,99577.00
2023-05-03T11:40:33.002Z,99573.13
2023-05-03T11:43:00.315Z,99551.50
2023-05-03T11:45:32.875Z,99531.81
2023-05-03T11:48:00.268Z,99548.09
2023-05-03T11:50:43.639Z,99537.50
2023-05-03T11:53:13.233Z,99545.41
2023-05-03T11:55:46.634Z,99534.25
2023-05-03T11:58:27.970Z,99570.22
2023-05-03T12:00:57.235Z,99549.81
2023-05-03T12:03:30.598Z,99539.56
2023-05-03T12:06:02.556Z,99536.19
2023-05-03T12:08:36.303Z,99549.84
2023-05-03T12:11:10.675Z,99544.16
2023-05-03T12:13:40.124Z,99562.56
2023-05-03T12:16:13.802Z,99566.19
2023-05-03T12:19:03.119Z,99560.19
2023-05-03T12:22:03.038Z,99594.59
2023-05-03T12:24:39.423Z,99607.78
2023-05-03T12:27:08.551Z,99561.53
2023-05-03T12:29:35.960Z,99555.47
2023-05-03T12:32:04.377Z,99586.41
2023-05-03T12:34:34.814Z,99557.91
2023-05-03T12:37:04.683Z,99563.66
2023-05-03T12:39:33.384Z,99575.72
2023-05-03T12:44:35.486Z,99553.88
2023-05-03T12:47:04.278Z,99570.31
2023-05-03T12:49:37.996Z,99568.34
2023-05-03T12:54:42.193Z,99558.53
2023-05-03T12:57:15.406Z,99565.31
2023-05-03T12:59:47.665Z,99564.94
2023-05-03T13:03:19.821Z,99564.09
2023-05-03T13:05:13.371Z,99576.44
2023-05-03T13:07:55.593Z,99560.91
2023-05-03T13:10:27.332Z,99573.72
2023-05-03T13:12:54.963Z,99591.19
2023-05-03T13:15:25.112Z,99582.44
2023-05-03T13:17:52.635Z,99572.16
2023-05-03T13:20:20.377Z,99574.50
2023-05-03T13:22:49.009Z,99564.72
2023-05-03T13:25:16.166Z,99571.25
2023-05-03T13:27:44.147Z,99579.53
2023-05-03T13:30:11.846Z,99564.91
2023-05-03T13:32:39.096Z,99567.59
2023-05-03T13:35:06.991Z,99567.59
2023-05-03T13:37:36.906Z,99563.25
2023-05-03T13:40:04.837Z,99557.94
2023-05-03T13:42:34.546Z,99570.03
2023-05-03T13:45:01.717Z,99558.22
2023-05-03T13:47:52.952Z,99568.47
2023-05-03T13:50:20.187Z,99569.72
2023-05-03T13:52:47.187Z,99585.50
2023-05-03T13:55:14.248Z,99596.94
2023-05-03T13:57:41.194Z,99594.31
2023-05-03T14:00:11.879Z,99571.81
2023-05-03T14:02:38.974Z,99574.75
2023-05-03T14:05:15.978Z,99584.09
2023-05-03T14:07:45.872Z,99577.47
2023-05-03T14:10:13.872Z,99588.22
2023-05-03T14:12:41.117Z,99593.97
2023-05-03T14:15:09.053Z,99584.19
2023-05-03T14:17:36.333Z,99596.34
2023-05-03T14:20:07.599Z,99597.75
2023-05-03T14:22:37.845Z,99583.47
2023-05-03T14:25:08.240Z,99579.50
2023-05-03T14:27:37.182Z,99610.63
2023-05-03T14:30:06.519Z,99573.78
2023-05-03T14:32:34.006Z,99572.28
2023-05-03T14:35:01.619Z,99572.97
2023-05-03T14:37:34.380Z,99582.94
2023-05-03T14:40:01.706Z,99566.50
2023-05-03T14:42:32.194Z,99570.25
2023-05-03T14:45:00.265Z,99564.00
2023-05-03T14:47:27.332Z,99572.75
2023-05-03T14:49:54.296Z,99568.59
2023-05-03T14:52:21.460Z,99557.97
2023-05-03T14:54:48.549Z,99561.78
2023-05-03T14:57:15.778Z,99585.09
2023-05-03T14:59:42.804Z,99568.34
2023-05-03T15:02:11.324Z,99572.28
2023-05-03T15:04:47.121Z,99582.56
2023-05-03T15:07:15.618Z,99573.75
2023-05-03T15:09:42.604Z,99568.09
2023-05-03T15:12:09.653Z,99578.66
2023-05-03T15:14:36.853Z,99599.13
2023-05-03T15:17:04.132Z,99596.81
2023-05-03T15:19:33.921Z,99592.84
2023-05-03T15:22:01.157Z,99584.88
2023-05-03T15:24:28.154Z,99602.56
2023-05-03T15:26:55.144Z,99594.44
2023-05-03T15:29:24.468Z,99589.53
2023-05-03T15:31:51.614Z,99580.94
2023-05-03T15:34:18.758Z,99585.69
2023-05-03T15:36:46.194Z,99586.16
2023-05-03T15:39:15.704Z,99576.50
2023-05-03T15:41:42.810Z,99588.84
2023-05-03T15:44:09.999Z,99596.84
2023-05-03T15:46:38.287Z,99587.06
2023-05-03T15:49:06.575Z,99597.91
2023-05-03T15:51:33.668Z,99607.31
2023-05-03T15:54:19.264Z,99598.38
2023-05-03T15:56:47.396Z,99604.97
2023-05-03T15:59:32.852Z,99596.50
2023-05-03T16:02:00.246Z,99610.63
2023-05-03T16:04:27.753Z,99609.31
2023-05-03T16:06:54.739Z,99622.38
2023-05-03T16:09:21.798Z,99630.44
2023-05-03T16:12:07.488Z,99621.84
2023-05-03T16:14:35.329Z,99621.59
2023-05-03T16:17:02.539Z,99640.59
2023-05-03T16:19:29.999Z,99635.63
2023-05-03T16:22:17.144Z,99622.59
2023-05-03T16:24:44.188Z,99631.16
2023-05-03T16:27:11.375Z,99630.09
2023-05-03T16:29:57.038Z,99635.50
2023-05-03T16:33:02.550Z,99634.94
2023-05-03T16:35:29.688Z,99630.44
2023-05-03T16:41:05.403Z,99643.06
2023-05-03T16:43:51.152Z,99652.72
2023-05-03T16:46:22.851Z,99664.41
2023-05-03T16:49:27.989Z,99658.97
2023-05-03T16:51:56.761Z,99665.38
2023-05-03T16:54:26.992Z,99676.84
2023-05-03T16:56:54.630Z,99684.00
2023-05-03T16:59:21.667Z,99677.25
2023-05-03T17:02:11.164Z,99683.97
2023-05-03T17:05:22.948Z,99676.13
2023-05-03T17:07:49.925Z,99680.13
2023-05-03T17:10:17.082Z,99685.06
2023-05-03T17:12:48.600Z,99683.66
2023-05-03T17:15:16.933Z,99681.56
2023-05-03T17:18:23.150Z,99683.84
2023-05-03T17:20:53.776Z,99687.13
2023-05-03T17:23:20.881Z,99693.13
2023-05-03T17:25:48.511Z,99702.00
2023-05-03T17:28:16.542Z,99700.94
2023-05-03T17:30:44.722Z,99678.63
2023-05-03T17:33:15.558Z,99692.09
2023-05-03T17:35:42.927Z,99693.31
2023-05-03T17:38:11.140Z,99698.31
2023-05-03T17:40:41.216Z,99704.69
2023-05-03T17:43:08.203Z,99703.25
2023-05-03T17:45:35.481Z,99706.59
2023-05-03T17:48:04.718Z,99702.66
2023-05-03T17:50:31.702Z,99720.44
2023-05-03T17:53:00.191Z,99723.34
2023-05-03T17:55:27.688Z,99721.09
2023-05-03T17:57:54.864Z,99727.13
2023-05-03T18:00:22.724Z,99713.50
2023-05-03T18:02:49.850Z,99718.50
2023-05-03T18:05:17.146Z,99743.72
2023-05-03T18:08:03.735Z,99725.53
2023-05-03T18:10:31.488Z,99734.84
2023-05-03T18:13:02.376Z,99734.63
2023-05-03T18:15:32.468Z,99736.28
2023-05-03T18:18:03.784Z,99741.44
2023-05-03T18:20:31.161Z,99737.97
2023-05-03T18:22:58.165Z,99742.94
2023-05-03T18:25:25.246Z,99714.84
2023-05-03T18:27:52.774Z,99737.13
2023-05-03T18:30:20.004Z,99740.22
2023-05-03T18:33:05.432Z,99730.31
2023-05-03T18:35:33.462Z,99725.75
2023-05-03T18:38:02.463Z,99733.00
2023-05-03T18:40:30.490Z,99719.75
2023-05-03T18:42:57.514Z,99722.25
2023-05-03T18:45:26.728Z,99713.13
2023-05-03T18:47:53.799Z,99713.94
2023-05-03T18:50:21.045Z,99717.88
2023-05-03T18:53:06.836Z,99726.16
2023-05-03T18:55:33.949Z,99727.81
2023-05-03T18:58:01.625Z,99736.72
2023-05-03T19:00:31.687Z,99739.44
2023-05-03T19:02:58.745Z,99738.41
2023-05-03T19:05:25.722Z,99736.34
2023-05-03T19:07:52.937Z,99730.97
2023-05-03T19:10:21.171Z,99751.66
2023-05-03T19:13:07.642Z,99750.44
2023-05-03T19:15:34.827Z,99734.75
2023-05-03T19:18:05.001Z,99745.31
2023-05-03T19:20:34.971Z,99749.44
2023-05-03T19:23:02.597Z,99754.22
2023-05-03T19:25:32.751Z,99741.78
2023-05-03T19:27:59.836Z,99752.34
2023-05-03T19:30:27.076Z,99744.50
2023-05-03T19:32:54.111Z,99739.31
2023-05-03T19:35:21.687Z,99755.22
2023-05-03T19:37:49.241Z,99746.72
2023-05-03T19:40:16.546Z,99757.00
2023-05-03T19:42:43.703Z,99742.69
2023-05-03T19:45:11.627Z,99775.94
2023-05-03T19:47:38.827Z,99784.16
2023-05-03T19:50:06.891Z,99778.13
2023-05-03T19:52:34.227Z,99775.63
2023-05-03T19:55:02.642Z,99779.53
2023-05-03T19:57:32.351Z,99791.47
2023-05-03T19:59:59.470Z,99794.56
2023-05-03T20:02:32.563Z,99779.00
2023-05-03T20:05:01.669Z,99769.03
2023-05-03T20:07:30.692Z,99780.56
2023-05-03T20:10:02.371Z,99795.09
2023-05-03T20:12:31.619Z,99804.34
2023-05-03T20:14:58.857Z,99809.25
2023-05-03T20:17:29.016Z,99812.09
2023-05-03T20:19:56.136Z,99797.38
2023-05-03T20:22:23.555Z,99815.34
2023-05-03T20:24:53.812Z,99814.13
2023-05-03T20:27:21.260Z,99817.53
2023-05-03T20:29:48.320Z,99818.50
2023-05-03T20:32:15.656Z,99830.28
2023-05-03T20:34:47.124Z,99822.84
2023-05-03T20:37:14.209Z,99831.44
2023-05-03T20:39:41.718Z,99831.59
2023-05-03T20:42:08.800Z,99832.91
2023-05-03T20:44:35.808Z,99844.44
2023-05-03T20:47:03.040Z,99822.72
2023-05-03T20:49:30.314Z,99826.81
2023-05-03T20:52:00.398Z,99836.56
2023-05-03T20:54:30.453Z,99836.50
2023-05-03T20:56:58.394Z,99832.53
2023-05-03T20:59:25.416Z,99840.56
2023-05-03T21:01:55.040Z,99829.53
2023-05-03T21:04:25.532Z,99833.63
2023-05-03T21:06:52.538Z,99833.81
2023-05-03T21:09:25.634Z,99836.31
2023-05-03T21:12:11.088Z,99836.31
2023-05-03T21:14:38.521Z,99838.25
2023-05-03T21:17:06.662Z,99837.81
2023-05-03T21:19:33.782Z,99845.63
2023-05-03T21:22:01.260Z,99847.97
2023-05-03T21:24:29.298Z,99852.53
2023-05-03T21:27:33.646Z,99854.78
2023-05-03T21:30:03.450Z,99858.59
2023-05-03T21:32:49.968Z,99855.63
2023-05-03T21:35:35.960Z,99857.41
2023-05-03T21:38:21.994Z,99857.78
2023-05-03T21:40:49.416Z,99852.81
2023-05-03T21:43:35.555Z,99854.59
2023-05-03T21:46:06.889Z,99849.91
2023-05-03T21:48:34.901Z,99856.94
2023-05-03T21:51:20.366Z,99854.06
2023-05-03T21:54:08.707Z,99861.88
2023-05-03T21:56:36.143Z,99850.69
2023-05-03T21:59:03.222Z,99867.22
2023-05-03T22:01:30.251Z,99866.50
2023-05-03T22:04:15.876Z,99867.25
2023-05-03T22:06:44.070Z,99866.53
2023-05-03T22:09:13.744Z,99863.13
2023-05-03T22:12:00.604Z,99868.59
2023-05-03T22:14:49.966Z,99864.25
2023-05-03T22:17:16.969Z,99867.97
2023-05-03T22:19:44.080Z,99865.38
2023-05-03T22:22:11.592Z,99871.66
2023-05-03T22:25:02.467Z,99874.22
2023-05-03T22:27:54.748Z,99869.06
2023-05-03T22:30:22.311Z,99873.16
2023-05-03T22:32:49.694Z,99869.94
2023-05-03T22:35:35.577Z,99874.31
2023-05-03T22:38:42.017Z,99878.13
2023-05-03T22:41:28.505Z,99879.91
2023-05-03T22:43:55.555Z,99877.84
2023-05-03T22:46:41.604Z,99872.19
2023-05-03T22:49:08.971Z,99878.25
2023-05-03T22:52:13.415Z,99884.78
2023-05-03T22:54:40.556Z,99879.75
2023-05-03T22:57:07.734Z,99883.09
2023-05-03T22:59:35.122Z,99891.16
2023-05-03T23:02:02.240Z,99892.16
2023-05-03T23:04:29.211Z,99890.50
2023-05-03T23:06:58.922Z,99883.00
2023-05-03T23:09:28.978Z,99895.88
2023-05-03T23:11:56.811Z,99888.91
2023-05-03T23:14:42.401Z,99885.41
2023-05-03T23:17:28.672Z,99882.97
2023-05-03T23:19:55.790Z,99894.59
2023-05-03T23:22:24.698Z,99896.47
2023-05-03T23:24:55.963Z,99908.34
2023-05-03T23:27:24.838Z,99904.06
2023-05-03T23:29:52.564Z,99902.06
2023-05-03T23:32:22.964Z,99899.94
2023-05-03T23:34:50.549Z,99903.91
2023-05-03T23:37:17.552Z,99906.44
2023-05-03T23:39:45.257Z,99900.28
2023-05-03T23:42:30.979Z,99903.44
2023-05-03T23:44:58.102Z,99895.97
2023-05-03T23:47:25.407Z,99899.97
2023-05-03T23:50:11.323Z,99901.97
2023-05-03T23:53:01.456Z,99901.50
2023-05-03T23:55:28.493Z,99894.00
2023-05-03T23:57:55.565Z,99902.31
